createdAt,value
2019-03-21T00:00:43.652Z,75.85
2019-03-21T00:03:14.668Z,75.58
2019-03-21T00:05:45.678Z,75.67
2019-03-21T00:08:16.843Z,75.69
2019-03-21T00:11:03.110Z,75.80
2019-03-21T00:13:34.063Z,75.78
2019-03-21T00:16:07.801Z,76.19
2019-03-21T00:18:38.922Z,76.19
2019-03-21T00:21:10.062Z,76.47
2019-03-21T00:23:41.113Z,76.55
2019-03-21T00:26:12.234Z,76.61
2019-03-21T00:28:43.407Z,76.70
2019-03-21T00:31:14.453Z,76.82
2019-03-21T00:33:46.344Z,76.59
2019-03-21T00:36:17.223Z,76.61
2019-03-21T00:38:48.182Z,76.35
2019-03-21T00:41:19.227Z,76.36
2019-03-21T00:43:50.359Z,76.46
2019-03-21T00:46:21.422Z,76.46
2019-03-21T00:48:52.473Z,76.85
2019-03-21T00:51:23.538Z,76.51
2019-03-21T00:53:54.703Z,76.72
2019-03-21T00:56:25.764Z,76.45
2019-03-21T00:58:56.753Z,76.29
2019-03-21T01:01:27.807Z,76.29
2019-03-21T01:03:59.895Z,76.28
2019-03-21T01:06:31.041Z,76.48
2019-03-21T01:09:02.148Z,76.53
2019-03-21T01:11:34.399Z,76.42
2019-03-21T01:14:05.634Z,75.99
2019-03-21T01:16:36.705Z,76.34
2019-03-21T01:19:07.818Z,76.30
2019-03-21T01:21:38.964Z,76.51
2019-03-21T01:24:10.050Z,76.56
2019-03-21T01:26:42.187Z,77.05
2019-03-21T01:29:13.350Z,77.14
2019-03-21T01:31:45.418Z,77.00
2019-03-21T01:34:16.627Z,77.56
2019-03-21T01:36:47.687Z,77.48
2019-03-21T01:39:19.963Z,77.61
2019-03-21T01:41:51.065Z,77.88
2019-03-21T01:44:22.088Z,78.04
2019-03-21T01:46:53.153Z,77.82
2019-03-21T01:49:24.253Z,77.80
2019-03-21T01:51:55.391Z,78.06
2019-03-21T01:54:26.531Z,78.09
2019-03-21T01:56:57.589Z,77.52
2019-03-21T01:59:28.616Z,77.92
2019-03-21T02:01:59.622Z,77.92
2019-03-21T02:04:30.660Z,78.34
2019-03-21T02:07:01.732Z,78.64
2019-03-21T02:09:34.152Z,78.53
2019-03-21T02:12:05.363Z,78.71
2019-03-21T02:14:36.507Z,79.46
2019-03-21T02:17:07.498Z,79.84
2019-03-21T02:19:38.586Z,79.84
2019-03-21T02:22:09.661Z,80.11
2019-03-21T02:24:41.264Z,80.06
2019-03-21T02:27:12.282Z,80.11
2019-03-21T02:29:43.473Z,80.16
2019-03-21T02:32:14.458Z,80.50
2019-03-21T02:34:46.550Z,80.66
2019-03-21T02:37:17.552Z,80.71
2019-03-21T02:39:59.343Z,80.80
2019-03-21T02:42:21.460Z,80.34
2019-03-21T02:45:07.233Z,80.66
2019-03-21T02:47:25.332Z,81.03
2019-03-21T02:49:56.666Z,81.03
2019-03-21T02:52:27.732Z,81.01
2019-03-21T02:54:58.871Z,81.09
2019-03-21T02:57:30.049Z,81.10
2019-03-21T03:00:01.173Z,80.94
2019-03-21T03:02:33.270Z,81.28
2019-03-21T03:05:07.438Z,81.53
2019-03-21T03:07:38.627Z,81.95
2019-03-21T03:10:12.985Z,82.48
2019-03-21T03:12:44.193Z,82.45
2019-03-21T03:15:23.160Z,82.25
2019-03-21T03:17:51.340Z,82.07
2019-03-21T03:20:22.560Z,82.15
2019-03-21T03:22:53.716Z,81.59
2019-03-21T03:25:24.885Z,82.09
2019-03-21T03:28:02.103Z,82.87
2019-03-21T03:30:33.325Z,83.25
2019-03-21T03:33:04.360Z,82.97
2019-03-21T03:35:35.464Z,83.49
2019-03-21T03:38:06.544Z,83.35
2019-03-21T03:40:52.784Z,83.04
2019-03-21T03:43:23.935Z,83.44
2019-03-21T03:45:55.134Z,83.42
2019-03-21T03:48:27.711Z,83.73
2019-03-21T03:50:58.732Z,83.89
2019-03-21T03:53:29.721Z,83.86
2019-03-21T03:56:00.837Z,83.88
2019-03-21T03:58:46.929Z,84.06
2019-03-21T04:01:18.142Z,83.62
2019-03-21T04:03:49.160Z,83.63
2019-03-21T04:06:20.158Z,83.32
2019-03-21T04:08:51.229Z,83.31
2019-03-21T04:11:22.343Z,82.95
2019-03-21T04:13:53.792Z,83.14
2019-03-21T04:16:24.957Z,82.49
2019-03-21T04:18:56.010Z,81.85
2019-03-21T04:21:27.373Z,81.22
2019-03-21T04:24:00.058Z,82.62
2019-03-21T04:26:34.779Z,82.55
2019-03-21T04:29:05.783Z,82.20
2019-03-21T04:31:37.068Z,82.16
2019-03-21T04:34:10.319Z,81.87
2019-03-21T04:36:41.303Z,81.07
2019-03-21T04:39:12.498Z,80.77
2019-03-21T04:41:45.381Z,80.49
2019-03-21T04:44:16.402Z,79.82
2019-03-21T04:46:47.575Z,79.17
2019-03-21T04:49:18.618Z,79.88
2019-03-21T04:51:49.771Z,79.26
2019-03-21T04:54:20.903Z,79.75
2019-03-21T04:56:52.044Z,78.47
2019-03-21T04:59:23.190Z,78.55
2019-03-21T05:01:54.239Z,78.95
2019-03-21T05:04:26.977Z,78.61
2019-03-21T05:06:58.126Z,77.70
2019-03-21T05:09:29.336Z,77.99
2019-03-21T05:12:00.515Z,77.48
2019-03-21T05:14:31.514Z,76.98
2019-03-21T05:17:02.508Z,76.64
2019-03-21T05:19:33.567Z,76.45
2019-03-21T05:22:04.711Z,75.73
2019-03-21T05:24:35.801Z,76.00
2019-03-21T05:27:06.869Z,76.46
2019-03-21T05:29:37.881Z,75.76
2019-03-21T05:32:08.970Z,74.44
2019-03-21T05:34:40.008Z,74.16
2019-03-21T05:37:11.229Z,74.57
2019-03-21T05:39:42.659Z,74.35
2019-03-21T05:42:14.875Z,74.45
2019-03-21T05:44:45.968Z,73.56
2019-03-21T05:47:17.063Z,73.35
2019-03-21T05:49:48.258Z,72.36
2019-03-21T05:52:19.362Z,72.52
2019-03-21T05:54:50.493Z,72.82
2019-03-21T05:57:21.468Z,72.87
2019-03-21T05:59:52.649Z,72.81
2019-03-21T06:02:23.736Z,72.20
2019-03-21T06:04:54.733Z,71.73
2019-03-21T06:07:29.203Z,71.86
2019-03-21T06:10:00.358Z,71.93
2019-03-21T06:12:33.386Z,71.10
2019-03-21T06:15:07.973Z,70.73
2019-03-21T06:17:38.945Z,70.06
2019-03-21T06:20:25.690Z,69.21
2019-03-21T06:23:17.960Z,69.53
2019-03-21T06:25:59.306Z,69.24
2019-03-21T06:28:31.378Z,68.92
2019-03-21T06:31:02.581Z,68.92
2019-03-21T06:33:33.668Z,68.74
2019-03-21T06:36:04.755Z,68.21
2019-03-21T06:38:35.762Z,68.04
2019-03-21T06:41:06.912Z,67.15
2019-03-21T06:43:38.049Z,66.91
2019-03-21T06:46:09.233Z,66.53
2019-03-21T06:48:40.351Z,65.43
2019-03-21T06:51:11.417Z,64.53
2019-03-21T06:53:43.464Z,64.53
2019-03-21T06:56:14.476Z,65.28
2019-03-21T06:58:45.589Z,64.36
2019-03-21T07:01:16.733Z,62.83
2019-03-21T07:03:48.834Z,62.69
2019-03-21T07:06:19.880Z,61.36
2019-03-21T07:08:50.985Z,61.36
2019-03-21T07:11:22.169Z,59.77
2019-03-21T07:13:53.474Z,59.77
2019-03-21T07:16:24.596Z,59.56
2019-03-21T07:18:56.679Z,58.66
2019-03-21T07:21:27.779Z,57.82
2019-03-21T07:23:58.872Z,56.62
2019-03-21T07:26:29.993Z,56.83
2019-03-21T07:29:00.884Z,56.65
2019-03-21T07:31:32.076Z,56.61
2019-03-21T07:34:02.937Z,56.16
2019-03-21T07:36:33.964Z,55.78
2019-03-21T07:39:07.022Z,55.29
2019-03-21T07:41:37.926Z,54.59
2019-03-21T07:44:08.886Z,54.03
2019-03-21T07:46:39.855Z,53.58
2019-03-21T07:49:10.858Z,52.87
2019-03-21T07:51:41.874Z,52.71
2019-03-21T07:54:12.776Z,51.87
2019-03-21T07:56:43.907Z,49.80
2019-03-21T07:59:14.832Z,49.51
2019-03-21T08:01:45.928Z,49.13
2019-03-21T08:04:16.893Z,48.91
2019-03-21T08:06:48.012Z,48.88
2019-03-21T08:09:19.529Z,48.37
2019-03-21T08:11:50.482Z,47.30
2019-03-21T08:14:21.625Z,46.75
2019-03-21T08:16:52.667Z,46.28
2019-03-21T08:19:23.673Z,46.47
2019-03-21T08:21:55.090Z,46.41
2019-03-21T08:24:26.079Z,46.13
2019-03-21T08:26:56.991Z,46.02
2019-03-21T08:29:27.896Z,45.96
2019-03-21T08:31:58.837Z,45.43
2019-03-21T08:34:29.870Z,44.88
2019-03-21T08:37:00.970Z,44.95
2019-03-21T08:39:31.898Z,44.70
2019-03-21T08:42:02.808Z,44.88
2019-03-21T08:44:33.705Z,44.42
2019-03-21T08:47:04.717Z,44.05
2019-03-21T08:49:35.757Z,44.02
2019-03-21T08:52:06.635Z,42.93
2019-03-21T08:54:37.632Z,39.69
2019-03-21T08:57:08.539Z,39.53
2019-03-21T08:59:39.642Z,39.31
2019-03-21T09:02:11.055Z,39.65
2019-03-21T09:04:43.200Z,39.36
2019-03-21T09:07:14.168Z,38.72
2019-03-21T09:09:45.104Z,39.09
2019-03-21T09:12:16.056Z,38.67
2019-03-21T09:14:47.001Z,38.02
2019-03-21T09:17:18.028Z,38.65
2019-03-21T09:19:49.069Z,39.14
2019-03-21T09:22:19.955Z,39.11
2019-03-21T09:24:51.050Z,38.42
2019-03-21T09:27:22.018Z,38.41
2019-03-21T09:29:53.949Z,38.36
2019-03-21T09:32:25.293Z,38.32
2019-03-21T09:34:56.232Z,38.74
2019-03-21T09:37:27.211Z,38.56
2019-03-21T09:39:58.221Z,38.60
2019-03-21T09:42:29.194Z,38.55
2019-03-21T09:45:00.061Z,38.88
2019-03-21T09:47:31.047Z,38.93
2019-03-21T09:50:02.001Z,38.16
2019-03-21T09:52:33.048Z,37.32
2019-03-21T09:55:06.824Z,37.80
2019-03-21T09:57:37.802Z,37.59
2019-03-21T10:00:10.242Z,37.19
2019-03-21T10:02:41.219Z,36.95
2019-03-21T10:05:13.255Z,36.62
2019-03-21T10:07:44.311Z,36.78
2019-03-21T10:10:18.700Z,36.39
2019-03-21T10:12:49.749Z,36.27
2019-03-21T10:15:21.026Z,37.98
2019-03-21T10:17:52.162Z,37.66
2019-03-21T10:20:23.181Z,37.26
2019-03-21T10:22:54.311Z,37.90
2019-03-21T10:25:26.661Z,37.89
2019-03-21T10:27:57.839Z,38.32
2019-03-21T10:30:37.036Z,38.42
2019-03-21T10:33:09.475Z,38.02
2019-03-21T10:35:40.355Z,37.81
2019-03-21T10:38:11.450Z,37.32
2019-03-21T10:40:42.566Z,36.94
2019-03-21T10:43:13.527Z,38.14
2019-03-21T10:45:44.550Z,38.72
2019-03-21T10:48:15.495Z,38.07
2019-03-21T10:50:46.347Z,38.51
2019-03-21T10:53:17.268Z,38.79
2019-03-21T10:55:48.217Z,38.11
2019-03-21T10:58:19.319Z,37.92
2019-03-21T11:00:50.282Z,37.98
2019-03-21T11:03:21.160Z,36.66
2019-03-21T11:05:52.182Z,37.26
2019-03-21T11:08:23.220Z,37.22
2019-03-21T11:10:54.259Z,36.65
2019-03-21T11:13:25.292Z,36.71
2019-03-21T11:15:56.235Z,36.20
2019-03-21T11:18:35.708Z,36.93
2019-03-21T11:21:00.071Z,36.80
2019-03-21T11:23:31.138Z,37.42
2019-03-21T11:26:02.251Z,37.57
2019-03-21T11:28:33.266Z,37.89
2019-03-21T11:31:04.524Z,37.55
2019-03-21T11:33:35.552Z,38.23
2019-03-21T11:36:06.686Z,38.94
2019-03-21T11:38:37.809Z,40.11
2019-03-21T11:41:08.716Z,40.91
2019-03-21T11:43:39.684Z,41.10
2019-03-21T11:46:10.565Z,40.95
2019-03-21T11:48:41.563Z,41.07
2019-03-21T11:51:12.475Z,41.05
2019-03-21T11:53:44.139Z,40.96
2019-03-21T11:56:15.260Z,41.03
2019-03-21T11:58:46.119Z,40.87
2019-03-21T12:01:17.129Z,39.66
2019-03-21T12:03:48.140Z,39.59
2019-03-21T12:06:19.218Z,38.43
2019-03-21T12:08:50.149Z,38.40
2019-03-21T12:11:21.469Z,38.71
2019-03-21T12:13:52.567Z,38.46
2019-03-21T12:16:24.065Z,38.60
2019-03-21T12:18:55.035Z,38.79
2019-03-21T12:21:25.966Z,38.94
2019-03-21T12:23:56.917Z,38.49
2019-03-21T12:26:28.028Z,39.03
2019-03-21T12:28:58.990Z,38.99
2019-03-21T12:31:30.043Z,38.23
2019-03-21T12:34:01.186Z,38.25
2019-03-21T12:36:32.678Z,38.39
2019-03-21T12:39:05.469Z,39.44
2019-03-21T12:41:36.596Z,38.50
2019-03-21T12:44:07.785Z,38.09
2019-03-21T12:46:38.943Z,37.91
2019-03-21T12:49:10.009Z,37.97
2019-03-21T12:51:41.351Z,38.28
2019-03-21T12:54:12.400Z,38.22
2019-03-21T12:56:43.549Z,38.28
2019-03-21T12:59:14.683Z,37.85
2019-03-21T13:01:45.867Z,36.97
2019-03-21T13:04:16.916Z,36.89
2019-03-21T13:06:47.900Z,36.23
2019-03-21T13:09:18.949Z,36.48
2019-03-21T13:11:49.995Z,35.68
2019-03-21T13:14:21.026Z,35.77
2019-03-21T13:16:51.951Z,36.25
2019-03-21T13:19:23.119Z,36.67
2019-03-21T13:21:54.077Z,37.21
2019-03-21T13:24:25.201Z,37.59
2019-03-21T13:26:56.329Z,37.78
2019-03-21T13:29:27.282Z,37.60
2019-03-21T13:31:59.340Z,36.63
2019-03-21T13:34:30.210Z,35.97
2019-03-21T13:37:01.215Z,35.69
2019-03-21T13:39:32.252Z,35.65
2019-03-21T13:42:03.204Z,35.27
2019-03-21T13:44:35.207Z,35.28
2019-03-21T13:47:06.295Z,36.47
2019-03-21T13:49:37.291Z,36.81
2019-03-21T13:52:08.561Z,38.42
2019-03-21T13:54:39.581Z,39.30
2019-03-21T13:57:10.563Z,39.93
2019-03-21T13:59:41.910Z,39.75
2019-03-21T14:02:12.798Z,40.02
2019-03-21T14:04:43.916Z,39.91
2019-03-21T14:07:14.866Z,39.62
2019-03-21T14:09:45.832Z,39.69
2019-03-21T14:12:16.925Z,39.69
2019-03-21T14:14:48.045Z,39.77
2019-03-21T14:17:22.215Z,39.89
2019-03-21T14:19:51.798Z,39.96
2019-03-21T14:22:22.857Z,40.14
2019-03-21T14:24:53.890Z,40.27
2019-03-21T14:27:26.108Z,40.37
2019-03-21T14:30:01.816Z,40.89
2019-03-21T14:32:30.451Z,41.23
2019-03-21T14:35:01.594Z,41.48
2019-03-21T14:37:32.753Z,41.97
2019-03-21T14:40:06.006Z,42.10
2019-03-21T14:42:37.375Z,42.37
2019-03-21T14:45:10.512Z,42.31
2019-03-21T14:47:42.597Z,42.64
2019-03-21T14:50:15.030Z,42.81
2019-03-21T14:52:46.039Z,43.06
2019-03-21T14:55:17.142Z,43.08
2019-03-21T14:57:48.635Z,43.38
2019-03-21T15:00:20.055Z,43.58
2019-03-21T15:02:51.183Z,43.73
2019-03-21T15:05:22.263Z,43.79
2019-03-21T15:07:53.743Z,43.89
2019-03-21T15:10:24.925Z,43.84
2019-03-21T15:12:56.078Z,43.49
2019-03-21T15:15:27.044Z,43.21
2019-03-21T15:17:58.845Z,42.42
2019-03-21T15:20:30.028Z,42.16
2019-03-21T15:23:01.233Z,42.48
2019-03-21T15:25:32.547Z,42.67
2019-03-21T15:28:04.056Z,43.30
2019-03-21T15:30:35.053Z,43.51
2019-03-21T15:33:06.231Z,43.75
2019-03-21T15:35:37.347Z,44.08
2019-03-21T15:38:08.393Z,44.02
2019-03-21T15:40:39.558Z,44.22
2019-03-21T15:43:10.623Z,44.21
2019-03-21T15:45:41.748Z,44.42
2019-03-21T15:48:12.799Z,43.79
2019-03-21T15:50:43.839Z,43.99
2019-03-21T15:53:14.998Z,44.05
2019-03-21T15:55:46.146Z,44.00
2019-03-21T15:58:17.545Z,44.02
2019-03-21T16:00:48.628Z,44.27
2019-03-21T16:03:19.798Z,44.07
2019-03-21T16:05:51.030Z,44.39
2019-03-21T16:08:22.351Z,44.67
2019-03-21T16:10:56.153Z,44.79
2019-03-21T16:13:27.398Z,45.30
2019-03-21T16:15:58.524Z,45.58
2019-03-21T16:18:29.608Z,45.92
2019-03-21T16:21:00.930Z,46.07
2019-03-21T16:23:32.129Z,46.25
2019-03-21T16:26:03.306Z,46.12
2019-03-21T16:28:34.546Z,46.60
2019-03-21T16:31:05.686Z,46.83
2019-03-21T16:33:37.081Z,46.93
2019-03-21T16:36:08.213Z,47.39
2019-03-21T16:38:39.287Z,47.58
2019-03-21T16:41:10.266Z,47.97
2019-03-21T16:43:41.493Z,48.18
2019-03-21T16:46:12.603Z,48.27
2019-03-21T16:48:43.694Z,48.43
2019-03-21T16:51:14.866Z,48.64
2019-03-21T16:53:45.936Z,49.00
2019-03-21T16:56:17.069Z,49.15
2019-03-21T16:58:48.210Z,49.47
2019-03-21T17:01:19.446Z,49.63
2019-03-21T17:03:50.604Z,49.88
2019-03-21T17:06:21.752Z,49.95
2019-03-21T17:08:52.853Z,50.18
2019-03-21T17:11:23.969Z,50.50
2019-03-21T17:13:55.081Z,51.05
2019-03-21T17:16:26.177Z,51.18
2019-03-21T17:18:57.422Z,52.08
2019-03-21T17:21:28.420Z,52.63
2019-03-21T17:23:59.561Z,53.24
2019-03-21T17:26:30.936Z,54.20
2019-03-21T17:29:02.642Z,55.25
2019-03-21T17:31:33.874Z,55.62
2019-03-21T17:34:05.201Z,56.71
2019-03-21T17:36:36.362Z,57.17
2019-03-21T17:39:09.314Z,57.07
2019-03-21T17:41:43.237Z,57.33
2019-03-21T17:44:14.653Z,57.44
2019-03-21T17:46:45.691Z,55.91
2019-03-21T17:49:16.884Z,55.91
2019-03-21T17:51:47.995Z,55.67
2019-03-21T17:54:19.184Z,55.67
2019-03-21T17:56:50.257Z,55.55
2019-03-21T17:59:21.297Z,55.59
2019-03-21T18:01:52.242Z,54.92
2019-03-21T18:04:23.361Z,54.92
2019-03-21T18:06:54.385Z,55.13
2019-03-21T18:09:25.459Z,55.53
2019-03-21T18:11:56.394Z,55.40
2019-03-21T18:14:28.346Z,55.74
2019-03-21T18:16:59.307Z,55.37
2019-03-21T18:19:30.344Z,55.37
2019-03-21T18:22:01.738Z,55.68
2019-03-21T18:24:32.687Z,55.97
2019-03-21T18:27:03.749Z,56.16
2019-03-21T18:29:35.027Z,56.67
2019-03-21T18:32:06.067Z,57.06
2019-03-21T18:34:37.174Z,57.74
2019-03-21T18:37:08.154Z,58.33
2019-03-21T18:39:39.308Z,58.33
2019-03-21T18:42:10.452Z,58.71
2019-03-21T18:44:41.549Z,58.88
2019-03-21T18:47:12.623Z,58.88
2019-03-21T18:49:43.851Z,58.81
2019-03-21T18:52:15.898Z,59.12
2019-03-21T18:54:47.083Z,59.23
2019-03-21T18:57:18.285Z,58.84
2019-03-21T18:59:49.269Z,59.24
2019-03-21T19:02:20.263Z,59.24
2019-03-21T19:04:51.389Z,58.99
2019-03-21T19:07:22.498Z,59.19
2019-03-21T19:09:53.612Z,59.00
2019-03-21T19:12:24.493Z,59.07
2019-03-21T19:14:55.556Z,59.07
2019-03-21T19:17:26.459Z,58.96
2019-03-21T19:19:57.443Z,58.91
2019-03-21T19:22:28.441Z,59.13
2019-03-21T19:24:59.510Z,58.30
2019-03-21T19:27:30.551Z,58.29
2019-03-21T19:30:02.689Z,58.38
2019-03-21T19:32:33.708Z,57.50
2019-03-21T19:35:05.424Z,57.79
2019-03-21T19:37:36.566Z,57.50
2019-03-21T19:40:14.067Z,57.64
2019-03-21T19:42:45.031Z,56.91
2019-03-21T19:45:17.544Z,57.25
2019-03-21T19:47:48.787Z,57.46
2019-03-21T19:50:20.645Z,57.46
2019-03-21T19:52:51.849Z,57.84
2019-03-21T19:55:30.716Z,58.05
2019-03-21T19:57:56.814Z,58.43
2019-03-21T20:00:28.332Z,58.50
2019-03-21T20:02:59.335Z,58.14
2019-03-21T20:05:30.384Z,57.88
2019-03-21T20:08:01.399Z,57.67
2019-03-21T20:10:32.724Z,57.28
2019-03-21T20:13:03.691Z,57.67
2019-03-21T20:15:36.029Z,57.83
2019-03-21T20:18:07.191Z,57.50
2019-03-21T20:20:38.462Z,57.43
2019-03-21T20:23:09.866Z,57.38
2019-03-21T20:25:43.053Z,57.00
2019-03-21T20:28:14.008Z,57.78
2019-03-21T20:30:45.145Z,57.39
2019-03-21T20:33:16.250Z,57.39
2019-03-21T20:35:47.294Z,58.03
2019-03-21T20:38:18.259Z,58.03
2019-03-21T20:40:49.344Z,59.02
2019-03-21T20:43:20.513Z,59.78
2019-03-21T20:45:51.553Z,60.46
2019-03-21T20:48:28.005Z,60.68
2019-03-21T20:50:59.067Z,61.13
2019-03-21T20:53:30.201Z,61.51
2019-03-21T20:56:01.347Z,61.90
2019-03-21T20:58:32.485Z,62.28
2019-03-21T21:01:04.312Z,62.45
2019-03-21T21:03:35.492Z,62.73
2019-03-21T21:06:06.543Z,62.97
2019-03-21T21:08:38.771Z,62.82
2019-03-21T21:11:09.840Z,62.83
2019-03-21T21:13:40.968Z,63.10
2019-03-21T21:16:12.132Z,63.12
2019-03-21T21:18:43.222Z,63.17
2019-03-21T21:21:14.385Z,63.28
2019-03-21T21:23:45.707Z,63.32
2019-03-21T21:26:16.904Z,63.38
2019-03-21T21:28:47.963Z,63.13
2019-03-21T21:31:19.087Z,63.50
2019-03-21T21:37:12.655Z,63.72
2019-03-21T21:39:44.896Z,63.39
2019-03-21T21:42:16.355Z,63.79
2019-03-21T21:44:47.555Z,63.82
2019-03-21T21:47:18.637Z,63.37
2019-03-21T21:49:49.629Z,63.22
2019-03-21T21:52:20.718Z,63.43
2019-03-21T21:54:51.803Z,63.30
2019-03-21T21:57:23.006Z,63.58
2019-03-21T21:59:54.102Z,63.65
2019-03-21T22:05:32.880Z,63.45
2019-03-21T22:08:04.107Z,62.94
2019-03-21T22:10:37.796Z,62.44
2019-03-21T22:13:17.138Z,62.43
2019-03-21T22:16:24.544Z,62.45
2019-03-21T22:18:55.578Z,62.37
2019-03-21T22:21:26.680Z,62.61
2019-03-21T22:23:57.653Z,62.81
2019-03-21T22:26:30.114Z,62.29
2019-03-21T22:29:01.590Z,62.24
2019-03-21T22:31:32.708Z,62.31
2019-03-21T22:34:03.783Z,62.52
2019-03-21T22:36:35.612Z,62.81
2019-03-21T22:39:08.055Z,62.53
2019-03-21T22:45:11.121Z,63.66
2019-03-21T22:47:42.249Z,63.80
2019-03-21T22:50:15.632Z,63.70
2019-03-21T22:52:46.741Z,64.14
2019-03-21T22:55:17.812Z,64.49
2019-03-21T22:57:48.973Z,64.81
2019-03-21T23:00:22.631Z,65.05
2019-03-21T23:02:55.333Z,65.05
2019-03-21T23:05:26.440Z,65.34
2019-03-21T23:07:57.604Z,65.71
2019-03-21T23:10:28.703Z,65.98
2019-03-21T23:12:59.890Z,66.20
2019-03-21T23:15:30.880Z,66.06
2019-03-21T23:18:01.969Z,66.17
2019-03-21T23:20:33.063Z,66.44
2019-03-21T23:23:04.228Z,66.06
2019-03-21T23:25:35.209Z,66.16
2019-03-21T23:28:07.260Z,66.33
2019-03-21T23:30:38.432Z,66.35
2019-03-21T23:33:09.621Z,66.55
2019-03-21T23:35:40.752Z,66.50
2019-03-21T23:38:11.804Z,66.63
2019-03-21T23:40:42.945Z,66.96
2019-03-21T23:43:14.092Z,67.32
2019-03-21T23:45:45.131Z,67.27
2019-03-21T23:48:16.172Z,67.49
2019-03-21T23:50:47.313Z,67.37
2019-03-21T23:53:18.271Z,67.72
2019-03-21T23:55:52.805Z,67.66
2019-03-21T23:58:36.996Z,67.94
